sensor_id;sensor_type;location;lat;lon;timestamp;P1;durP1;ratioP1;P2;durP2;ratioP2
29026;SDS011;16120;48.608;9.092;2022-10-17T00:01:58;75.60;;;5.60;;
29026;SDS011;16120;48.608;9.092;2022-10-17T00:05:54;79.10;;;5.80;;
29026;SDS011;16120;48.608;9.092;2022-10-17T00:09:50;77.10;;;6.00;;
29026;SDS011;16120;48.608;9.092;2022-10-17T00:13:45;77.93;;;5.70;;
29026;SDS011;16120;48.608;9.092;2022-10-17T00:17:41;79.67;;;5.20;;
29026;SDS011;16120;48.608;9.092;2022-10-17T00:21:38;77.40;;;5.50;;
29026;SDS011;16120;48.608;9.092;2022-10-17T00:25:34;84.83;;;5.20;;
29026;SDS011;16120;48.608;9.092;2022-10-17T00:29:29;83.93;;;5.30;;
29026;SDS011;16120;48.608;9.092;2022-10-17T00:33:25;88.20;;;5.53;;
29026;SDS011;16120;48.608;9.092;2022-10-17T00:37:22;81.43;;;5.40;;
29026;SDS011;16120;48.608;9.092;2022-10-17T00:41:18;84.33;;;5.67;;
29026;SDS011;16120;48.608;9.092;2022-10-17T00:45:15;79.50;;;5.50;;
29026;SDS011;16120;48.608;9.092;2022-10-17T00:49:11;81.20;;;5.60;;
29026;SDS011;16120;48.608;9.092;2022-10-17T00:53:08;87.35;;;5.88;;
29026;SDS011;16120;48.608;9.092;2022-10-17T00:57:04;77.47;;;5.53;;
29026;SDS011;16120;48.608;9.092;2022-10-17T01:01:00;81.63;;;5.37;;
29026;SDS011;16120;48.608;9.092;2022-10-17T01:04:55;79.33;;;4.80;;
29026;SDS011;16120;48.608;9.092;2022-10-17T01:08:53;79.10;;;4.87;;
29026;SDS011;16120;48.608;9.092;2022-10-17T01:12:54;75.77;;;4.90;;
29026;SDS011;16120;48.608;9.092;2022-10-17T01:16:52;74.83;;;5.30;;
29026;SDS011;16120;48.608;9.092;2022-10-17T01:21:05;80.60;;;5.60;;
29026;SDS011;16120;48.608;9.092;2022-10-17T01:25:10;75.30;;;5.10;;
29026;SDS011;16120;48.608;9.092;2022-10-17T01:29:15;89.20;;;5.47;;
29026;SDS011;16120;48.608;9.092;2022-10-17T01:33:15;77.23;;;5.30;;
29026;SDS011;16120;48.608;9.092;2022-10-17T01:37:12;84.23;;;5.50;;
29026;SDS011;16120;48.608;9.092;2022-10-17T01:41:13;81.90;;;5.37;;
29026;SDS011;16120;48.608;9.092;2022-10-17T01:45:10;86.27;;;4.93;;
29026;SDS011;16120;48.608;9.092;2022-10-17T01:49:09;78.17;;;5.23;;
29026;SDS011;16120;48.608;9.092;2022-10-17T01:53:06;79.17;;;5.13;;
29026;SDS011;16120;48.608;9.092;2022-10-17T01:57:03;81.20;;;5.00;;
29026;SDS011;16120;48.608;9.092;2022-10-17T02:01:00;73.70;;;4.07;;
29026;SDS011;16120;48.608;9.092;2022-10-17T02:04:58;76.07;;;4.70;;
29026;SDS011;16120;48.608;9.092;2022-10-17T02:08:55;82.60;;;4.63;;
29026;SDS011;16120;48.608;9.092;2022-10-17T02:12:52;77.37;;;5.20;;
29026;SDS011;16120;48.608;9.092;2022-10-17T02:16:49;75.80;;;4.63;;
29026;SDS011;16120;48.608;9.092;2022-10-17T02:20:49;76.17;;;5.13;;
29026;SDS011;16120;48.608;9.092;2022-10-17T02:24:46;76.87;;;5.07;;
29026;SDS011;16120;48.608;9.092;2022-10-17T02:28:45;76.30;;;5.40;;
29026;SDS011;16120;48.608;9.092;2022-10-17T02:32:42;80.10;;;4.93;;
29026;SDS011;16120;48.608;9.092;2022-10-17T02:36:42;80.87;;;5.30;;
29026;SDS011;16120;48.608;9.092;2022-10-17T02:40:39;75.87;;;5.13;;
29026;SDS011;16120;48.608;9.092;2022-10-17T02:44:35;80.20;;;4.73;;
29026;SDS011;16120;48.608;9.092;2022-10-17T02:48:33;77.20;;;4.57;;
29026;SDS011;16120;48.608;9.092;2022-10-17T02:52:33;74.17;;;4.60;;
29026;SDS011;16120;48.608;9.092;2022-10-17T02:56:29;74.07;;;4.13;;
29026;SDS011;16120;48.608;9.092;2022-10-17T03:00:27;74.30;;;4.57;;
29026;SDS011;16120;48.608;9.092;2022-10-17T03:04:22;78.47;;;5.33;;
29026;SDS011;16120;48.608;9.092;2022-10-17T03:08:19;75.68;;;5.13;;
29026;SDS011;16120;48.608;9.092;2022-10-17T03:12:15;79.33;;;5.93;;
29026;SDS011;16120;48.608;9.092;2022-10-17T03:16:13;87.70;;;5.40;;
29026;SDS011;16120;48.608;9.092;2022-10-17T03:20:08;77.97;;;5.73;;
29026;SDS011;16120;48.608;9.092;2022-10-17T03:24:05;79.97;;;5.43;;
29026;SDS011;16120;48.608;9.092;2022-10-17T03:28:01;75.27;;;4.80;;
29026;SDS011;16120;48.608;9.092;2022-10-17T03:31:56;85.10;;;5.00;;
29026;SDS011;16120;48.608;9.092;2022-10-17T03:35:51;83.93;;;5.55;;
29026;SDS011;16120;48.608;9.092;2022-10-17T03:39:48;75.88;;;4.82;;
29026;SDS011;16120;48.608;9.092;2022-10-17T03:43:43;87.43;;;5.37;;
29026;SDS011;16120;48.608;9.092;2022-10-17T03:47:38;75.60;;;5.10;;
29026;SDS011;16120;48.608;9.092;2022-10-17T03:51:33;74.57;;;4.87;;
29026;SDS011;16120;48.608;9.092;2022-10-17T03:55:30;75.55;;;4.90;;
29026;SDS011;16120;48.608;9.092;2022-10-17T03:59:25;76.17;;;5.00;;
29026;SDS011;16120;48.608;9.092;2022-10-17T04:03:21;77.47;;;5.80;;
29026;SDS011;16120;48.608;9.092;2022-10-17T04:07:16;76.70;;;5.20;;
29026;SDS011;16120;48.608;9.092;2022-10-17T04:11:14;81.60;;;5.53;;
29026;SDS011;16120;48.608;9.092;2022-10-17T04:15:10;82.37;;;5.60;;
29026;SDS011;16120;48.608;9.092;2022-10-17T04:19:05;81.10;;;5.50;;
29026;SDS011;16120;48.608;9.092;2022-10-17T04:23:00;85.70;;;7.17;;
29026;SDS011;16120;48.608;9.092;2022-10-17T04:26:57;81.10;;;5.22;;
29026;SDS011;16120;48.608;9.092;2022-10-17T04:30:56;84.47;;;6.07;;
29026;SDS011;16120;48.608;9.092;2022-10-17T04:34:51;79.80;;;6.10;;
29026;SDS011;16120;48.608;9.092;2022-10-17T04:38:46;85.70;;;6.03;;
29026;SDS011;16120;48.608;9.092;2022-10-17T04:42:43;80.15;;;6.32;;
29026;SDS011;16120;48.608;9.092;2022-10-17T04:46:38;76.97;;;5.20;;
29026;SDS011;16120;48.608;9.092;2022-10-17T04:50:33;84.30;;;6.20;;
29026;SDS011;16120;48.608;9.092;2022-10-17T04:54:29;81.73;;;5.57;;
29026;SDS011;16120;48.608;9.092;2022-10-17T04:58:26;87.40;;;5.87;;
29026;SDS011;16120;48.608;9.092;2022-10-17T05:02:22;78.43;;;5.70;;
29026;SDS011;16120;48.608;9.092;2022-10-17T05:06:18;81.78;;;5.80;;
29026;SDS011;16120;48.608;9.092;2022-10-17T05:10:13;78.57;;;6.00;;
29026;SDS011;16120;48.608;9.092;2022-10-17T05:14:10;82.23;;;5.53;;
29026;SDS011;16120;48.608;9.092;2022-10-17T05:18:05;82.33;;;5.37;;
29026;SDS011;16120;48.608;9.092;2022-10-17T05:22:01;86.30;;;5.43;;
29026;SDS011;16120;48.608;9.092;2022-10-17T05:25:56;78.03;;;4.65;;
29026;SDS011;16120;48.608;9.092;2022-10-17T05:29:52;80.53;;;5.35;;
29026;SDS011;16120;48.608;9.092;2022-10-17T05:33:48;76.57;;;5.50;;
29026;SDS011;16120;48.608;9.092;2022-10-17T05:37:43;90.17;;;5.50;;
29026;SDS011;16120;48.608;9.092;2022-10-17T05:41:38;79.18;;;5.90;;
29026;SDS011;16120;48.608;9.092;2022-10-17T05:45:36;78.43;;;5.50;;
29026;SDS011;16120;48.608;9.092;2022-10-17T05:49:31;87.10;;;7.10;;
29026;SDS011;16120;48.608;9.092;2022-10-17T05:53:28;89.33;;;6.87;;
29026;SDS011;16120;48.608;9.092;2022-10-17T05:57:24;83.43;;;7.93;;
29026;SDS011;16120;48.608;9.092;2022-10-17T06:01:20;92.13;;;7.77;;
29026;SDS011;16120;48.608;9.092;2022-10-17T06:05:17;84.53;;;8.70;;
29026;SDS011;16120;48.608;9.092;2022-10-17T06:09:13;82.67;;;8.70;;
29026;SDS011;16120;48.608;9.092;2022-10-17T06:13:08;83.93;;;7.70;;
29026;SDS011;16120;48.608;9.092;2022-10-17T06:17:05;84.83;;;7.90;;
29026;SDS011;16120;48.608;9.092;2022-10-17T06:21:01;85.63;;;6.83;;
29026;SDS011;16120;48.608;9.092;2022-10-17T06:24:56;93.90;;;8.90;;
29026;SDS011;16120;48.608;9.092;2022-10-17T06:28:52;89.70;;;8.87;;
29026;SDS011;16120;48.608;9.092;2022-10-17T06:33:00;90.10;;;7.80;;
29026;SDS011;16120;48.608;9.092;2022-10-17T06:36:58;95.27;;;8.13;;
29026;SDS011;16120;48.608;9.092;2022-10-17T06:40:54;81.60;;;7.50;;
29026;SDS011;16120;48.608;9.092;2022-10-17T06:44:49;87.83;;;8.03;;
29026;SDS011;16120;48.608;9.092;2022-10-17T06:48:48;84.83;;;7.93;;
29026;SDS011;16120;48.608;9.092;2022-10-17T06:52:44;84.57;;;7.20;;
29026;SDS011;16120;48.608;9.092;2022-10-17T06:56:40;92.57;;;6.63;;
29026;SDS011;16120;48.608;9.092;2022-10-17T07:00:37;86.40;;;6.40;;
29026;SDS011;16120;48.608;9.092;2022-10-17T07:04:34;84.20;;;6.50;;
29026;SDS011;16120;48.608;9.092;2022-10-17T07:08:29;80.83;;;6.43;;
29026;SDS011;16120;48.608;9.092;2022-10-17T07:12:25;85.87;;;8.10;;
29026;SDS011;16120;48.608;9.092;2022-10-17T07:16:20;86.27;;;7.37;;
29026;SDS011;16120;48.608;9.092;2022-10-17T07:20:17;80.53;;;6.53;;
29026;SDS011;16120;48.608;9.092;2022-10-17T07:24:12;90.13;;;7.33;;
29026;SDS011;16120;48.608;9.092;2022-10-17T07:28:07;82.97;;;7.60;;
29026;SDS011;16120;48.608;9.092;2022-10-17T07:32:03;82.57;;;7.80;;
29026;SDS011;16120;48.608;9.092;2022-10-17T07:36:00;82.00;;;7.47;;
29026;SDS011;16120;48.608;9.092;2022-10-17T07:39:55;81.37;;;8.60;;
29026;SDS011;16120;48.608;9.092;2022-10-17T07:43:51;91.10;;;7.63;;
29026;SDS011;16120;48.608;9.092;2022-10-17T07:47:46;83.20;;;6.97;;
29026;SDS011;16120;48.608;9.092;2022-10-17T07:51:43;82.60;;;7.73;;
29026;SDS011;16120;48.608;9.092;2022-10-17T07:55:38;79.60;;;6.47;;
29026;SDS011;16120;48.608;9.092;2022-10-17T07:59:36;79.40;;;6.47;;
29026;SDS011;16120;48.608;9.092;2022-10-17T08:03:31;82.63;;;7.23;;
29026;SDS011;16120;48.608;9.092;2022-10-17T08:07:28;81.33;;;6.80;;
29026;SDS011;16120;48.608;9.092;2022-10-17T08:11:24;82.27;;;6.47;;
29026;SDS011;16120;48.608;9.092;2022-10-17T08:15:19;77.20;;;6.63;;
29026;SDS011;16120;48.608;9.092;2022-10-17T08:19:14;89.37;;;6.93;;
29026;SDS011;16120;48.608;9.092;2022-10-17T08:23:11;81.00;;;6.80;;
29026;SDS011;16120;48.608;9.092;2022-10-17T08:27:06;78.90;;;7.00;;
29026;SDS011;16120;48.608;9.092;2022-10-17T08:31:03;79.70;;;6.20;;
29026;SDS011;16120;48.608;9.092;2022-10-17T08:34:58;81.80;;;9.90;;
29026;SDS011;16120;48.608;9.092;2022-10-17T08:38:55;78.20;;;6.23;;
29026;SDS011;16120;48.608;9.092;2022-10-17T08:42:57;76.23;;;6.40;;
29026;SDS011;16120;48.608;9.092;2022-10-17T08:46:54;78.60;;;4.77;;
29026;SDS011;16120;48.608;9.092;2022-10-17T08:50:51;74.03;;;4.80;;
29026;SDS011;16120;48.608;9.092;2022-10-17T08:54:48;80.07;;;5.07;;
29026;SDS011;16120;48.608;9.092;2022-10-17T08:58:44;75.07;;;5.40;;
29026;SDS011;16120;48.608;9.092;2022-10-17T09:02:42;78.70;;;4.93;;
29026;SDS011;16120;48.608;9.092;2022-10-17T09:06:43;75.57;;;4.57;;
29026;SDS011;16120;48.608;9.092;2022-10-17T09:10:44;77.50;;;4.57;;
29026;SDS011;16120;48.608;9.092;2022-10-17T09:14:45;72.67;;;4.23;;
29026;SDS011;16120;48.608;9.092;2022-10-17T09:18:45;85.70;;;5.40;;
29026;SDS011;16120;48.608;9.092;2022-10-17T09:22:41;78.07;;;4.70;;
29026;SDS011;16120;48.608;9.092;2022-10-17T09:26:40;76.10;;;4.97;;
29026;SDS011;16120;48.608;9.092;2022-10-17T09:30:37;76.47;;;4.70;;
29026;SDS011;16120;48.608;9.092;2022-10-17T09:34:34;72.17;;;4.30;;
29026;SDS011;16120;48.608;9.092;2022-10-17T09:38:32;75.70;;;4.50;;
29026;SDS011;16120;48.608;9.092;2022-10-17T09:42:30;73.90;;;4.90;;
29026;SDS011;16120;48.608;9.092;2022-10-17T09:46:25;75.03;;;4.70;;
29026;SDS011;16120;48.608;9.092;2022-10-17T09:50:24;72.03;;;4.23;;
29026;SDS011;16120;48.608;9.092;2022-10-17T09:54:21;76.40;;;4.80;;
29026;SDS011;16120;48.608;9.092;2022-10-17T09:58:20;72.47;;;4.47;;
29026;SDS011;16120;48.608;9.092;2022-10-17T10:02:20;77.87;;;4.53;;
29026;SDS011;16120;48.608;9.092;2022-10-17T10:06:16;71.70;;;4.43;;
29026;SDS011;16120;48.608;9.092;2022-10-17T10:10:21;73.90;;;4.60;;
29026;SDS011;16120;48.608;9.092;2022-10-17T10:14:20;76.97;;;4.57;;
29026;SDS011;16120;48.608;9.092;2022-10-17T10:22:29;71.80;;;4.17;;
29026;SDS011;16120;48.608;9.092;2022-10-17T10:26:25;77.83;;;4.20;;
29026;SDS011;16120;48.608;9.092;2022-10-17T10:30:26;71.10;;;3.73;;
29026;SDS011;16120;48.608;9.092;2022-10-17T10:34:23;72.77;;;4.23;;
29026;SDS011;16120;48.608;9.092;2022-10-17T10:38:19;74.37;;;4.03;;
29026;SDS011;16120;48.608;9.092;2022-10-17T10:42:19;72.50;;;4.10;;
29026;SDS011;16120;48.608;9.092;2022-10-17T10:46:18;70.50;;;3.77;;
29026;SDS011;16120;48.608;9.092;2022-10-17T10:50:17;72.97;;;4.40;;
29026;SDS011;16120;48.608;9.092;2022-10-17T10:54:15;76.90;;;4.17;;
29026;SDS011;16120;48.608;9.092;2022-10-17T10:58:15;73.60;;;4.10;;
29026;SDS011;16120;48.608;9.092;2022-10-17T11:02:16;73.50;;;3.90;;
29026;SDS011;16120;48.608;9.092;2022-10-17T11:06:13;85.60;;;4.20;;
29026;SDS011;16120;48.608;9.092;2022-10-17T11:10:13;70.07;;;3.90;;
29026;SDS011;16120;48.608;9.092;2022-10-17T11:14:12;72.90;;;3.90;;
29026;SDS011;16120;48.608;9.092;2022-10-17T11:18:12;80.90;;;4.37;;
29026;SDS011;16120;48.608;9.092;2022-10-17T11:22:11;73.17;;;4.43;;
29026;SDS011;16120;48.608;9.092;2022-10-17T11:26:10;71.30;;;3.60;;
29026;SDS011;16120;48.608;9.092;2022-10-17T11:30:08;72.17;;;3.80;;
29026;SDS011;16120;48.608;9.092;2022-10-17T11:34:08;70.60;;;3.77;;
29026;SDS011;16120;48.608;9.092;2022-10-17T11:38:05;74.03;;;3.80;;
29026;SDS011;16120;48.608;9.092;2022-10-17T11:42:02;74.60;;;4.00;;
29026;SDS011;16120;48.608;9.092;2022-10-17T11:46:00;74.90;;;3.60;;
29026;SDS011;16120;48.608;9.092;2022-10-17T11:49:58;74.87;;;5.33;;
29026;SDS011;16120;48.608;9.092;2022-10-17T11:53:56;71.67;;;3.67;;
29026;SDS011;16120;48.608;9.092;2022-10-17T11:57:57;86.30;;;3.93;;
29026;SDS011;16120;48.608;9.092;2022-10-17T12:01:55;72.17;;;5.13;;
29026;SDS011;16120;48.608;9.092;2022-10-17T12:05:54;72.90;;;3.60;;
29026;SDS011;16120;48.608;9.092;2022-10-17T12:09:52;71.83;;;3.43;;
29026;SDS011;16120;48.608;9.092;2022-10-17T12:13:49;72.37;;;3.77;;
29026;SDS011;16120;48.608;9.092;2022-10-17T12:17:45;70.57;;;3.80;;
29026;SDS011;16120;48.608;9.092;2022-10-17T12:21:56;69.70;;;3.87;;
29026;SDS011;16120;48.608;9.092;2022-10-17T12:25:52;72.97;;;3.73;;
29026;SDS011;16120;48.608;9.092;2022-10-17T12:29:48;69.20;;;3.23;;
29026;SDS011;16120;48.608;9.092;2022-10-17T12:33:46;68.87;;;3.40;;
29026;SDS011;16120;48.608;9.092;2022-10-17T12:41:54;71.47;;;3.17;;
29026;SDS011;16120;48.608;9.092;2022-10-17T12:45:51;69.00;;;2.63;;
29026;SDS011;16120;48.608;9.092;2022-10-17T12:49:47;78.67;;;4.07;;
29026;SDS011;16120;48.608;9.092;2022-10-17T12:53:45;70.53;;;3.13;;
29026;SDS011;16120;48.608;9.092;2022-10-17T13:01:59;70.70;;;2.83;;
29026;SDS011;16120;48.608;9.092;2022-10-17T13:05:56;69.13;;;2.70;;
29026;SDS011;16120;48.608;9.092;2022-10-17T13:09:53;72.20;;;3.03;;
29026;SDS011;16120;48.608;9.092;2022-10-17T13:13:49;73.20;;;2.77;;
29026;SDS011;16120;48.608;9.092;2022-10-17T13:17:56;72.43;;;2.83;;
29026;SDS011;16120;48.608;9.092;2022-10-17T13:21:54;71.10;;;3.20;;
29026;SDS011;16120;48.608;9.092;2022-10-17T13:26:00;70.00;;;2.60;;
29026;SDS011;16120;48.608;9.092;2022-10-17T13:29:56;67.97;;;2.80;;
29026;SDS011;16120;48.608;9.092;2022-10-17T13:33:56;73.83;;;3.30;;
29026;SDS011;16120;48.608;9.092;2022-10-17T13:37:52;73.40;;;3.33;;
29026;SDS011;16120;48.608;9.092;2022-10-17T13:41:48;70.00;;;2.80;;
29026;SDS011;16120;48.608;9.092;2022-10-17T13:45:45;71.50;;;2.83;;
29026;SDS011;16120;48.608;9.092;2022-10-17T13:49:50;67.70;;;2.70;;
29026;SDS011;16120;48.608;9.092;2022-10-17T13:53:45;70.63;;;3.10;;
29026;SDS011;16120;48.608;9.092;2022-10-17T13:57:41;68.23;;;2.77;;
29026;SDS011;16120;48.608;9.092;2022-10-17T14:01:36;70.30;;;2.97;;
29026;SDS011;16120;48.608;9.092;2022-10-17T14:05:33;70.70;;;3.03;;
29026;SDS011;16120;48.608;9.092;2022-10-17T14:09:28;69.63;;;3.03;;
29026;SDS011;16120;48.608;9.092;2022-10-17T14:13:25;69.17;;;3.70;;
29026;SDS011;16120;48.608;9.092;2022-10-17T14:17:21;75.27;;;2.97;;
29026;SDS011;16120;48.608;9.092;2022-10-17T14:21:24;68.77;;;3.10;;
29026;SDS011;16120;48.608;9.092;2022-10-17T14:25:26;71.50;;;3.97;;
29026;SDS011;16120;48.608;9.092;2022-10-17T14:29:23;73.27;;;5.57;;
29026;SDS011;16120;48.608;9.092;2022-10-17T14:33:21;74.10;;;3.30;;
29026;SDS011;16120;48.608;9.092;2022-10-17T14:37:23;71.80;;;3.30;;
29026;SDS011;16120;48.608;9.092;2022-10-17T14:41:22;76.47;;;3.40;;
29026;SDS011;16120;48.608;9.092;2022-10-17T14:45:20;73.57;;;3.30;;
29026;SDS011;16120;48.608;9.092;2022-10-17T14:49:16;75.50;;;3.13;;
29026;SDS011;16120;48.608;9.092;2022-10-17T14:53:19;71.43;;;3.03;;
29026;SDS011;16120;48.608;9.092;2022-10-17T14:57:16;72.27;;;3.00;;
29026;SDS011;16120;48.608;9.092;2022-10-17T15:01:12;69.40;;;3.00;;
29026;SDS011;16120;48.608;9.092;2022-10-17T15:05:07;72.93;;;2.90;;
29026;SDS011;16120;48.608;9.092;2022-10-17T15:09:04;73.50;;;3.57;;
29026;SDS011;16120;48.608;9.092;2022-10-17T15:12:59;75.80;;;3.40;;
29026;SDS011;16120;48.608;9.092;2022-10-17T15:16:54;74.80;;;3.80;;
29026;SDS011;16120;48.608;9.092;2022-10-17T15:20:50;73.27;;;3.27;;
29026;SDS011;16120;48.608;9.092;2022-10-17T15:24:46;75.87;;;3.53;;
29026;SDS011;16120;48.608;9.092;2022-10-17T15:28:42;73.43;;;3.87;;
29026;SDS011;16120;48.608;9.092;2022-10-17T15:32:37;75.50;;;3.40;;
29026;SDS011;16120;48.608;9.092;2022-10-17T15:36:33;76.70;;;3.53;;
29026;SDS011;16120;48.608;9.092;2022-10-17T15:40:31;68.57;;;3.03;;
29026;SDS011;16120;48.608;9.092;2022-10-17T15:44:29;144.97;;;8.43;;
29026;SDS011;16120;48.608;9.092;2022-10-17T15:48:25;76.60;;;3.90;;
29026;SDS011;16120;48.608;9.092;2022-10-17T15:52:22;75.47;;;3.60;;
29026;SDS011;16120;48.608;9.092;2022-10-17T15:56:20;72.80;;;4.53;;
29026;SDS011;16120;48.608;9.092;2022-10-17T16:00:17;75.93;;;3.83;;
29026;SDS011;16120;48.608;9.092;2022-10-17T16:04:13;79.53;;;3.60;;
29026;SDS011;16120;48.608;9.092;2022-10-17T16:08:08;78.57;;;3.73;;
29026;SDS011;16120;48.608;9.092;2022-10-17T16:12:06;76.00;;;3.47;;
29026;SDS011;16120;48.608;9.092;2022-10-17T16:16:04;75.80;;;3.50;;
29026;SDS011;16120;48.608;9.092;2022-10-17T16:19:59;78.37;;;3.30;;
29026;SDS011;16120;48.608;9.092;2022-10-17T16:23:55;79.17;;;3.87;;
29026;SDS011;16120;48.608;9.092;2022-10-17T16:27:52;86.63;;;3.60;;
29026;SDS011;16120;48.608;9.092;2022-10-17T16:31:48;80.30;;;3.80;;
29026;SDS011;16120;48.608;9.092;2022-10-17T16:35:43;83.03;;;4.53;;
29026;SDS011;16120;48.608;9.092;2022-10-17T16:39:38;82.27;;;4.10;;
29026;SDS011;16120;48.608;9.092;2022-10-17T16:43:35;84.50;;;3.90;;
29026;SDS011;16120;48.608;9.092;2022-10-17T16:47:30;82.80;;;3.60;;
29026;SDS011;16120;48.608;9.092;2022-10-17T16:51:25;74.37;;;4.80;;
29026;SDS011;16120;48.608;9.092;2022-10-17T16:55:20;82.53;;;4.53;;
29026;SDS011;16120;48.608;9.092;2022-10-17T16:59:17;75.20;;;4.40;;
29026;SDS011;16120;48.608;9.092;2022-10-17T17:03:12;88.63;;;4.40;;
29026;SDS011;16120;48.608;9.092;2022-10-17T17:07:07;96.67;;;11.40;;
29026;SDS011;16120;48.608;9.092;2022-10-17T17:11:05;96.37;;;11.67;;
29026;SDS011;16120;48.608;9.092;2022-10-17T17:15:01;89.50;;;7.70;;
29026;SDS011;16120;48.608;9.092;2022-10-17T17:18:57;88.53;;;8.20;;
29026;SDS011;16120;48.608;9.092;2022-10-17T17:22:53;79.07;;;5.33;;
29026;SDS011;16120;48.608;9.092;2022-10-17T17:26:49;83.30;;;5.57;;
29026;SDS011;16120;48.608;9.092;2022-10-17T17:30:46;83.10;;;4.80;;
29026;SDS011;16120;48.608;9.092;2022-10-17T17:34:41;77.80;;;4.57;;
29026;SDS011;16120;48.608;9.092;2022-10-17T17:38:37;80.50;;;5.63;;
29026;SDS011;16120;48.608;9.092;2022-10-17T17:42:32;80.60;;;4.57;;
29026;SDS011;16120;48.608;9.092;2022-10-17T17:46:28;80.37;;;5.23;;
29026;SDS011;16120;48.608;9.092;2022-10-17T17:50:24;86.17;;;5.20;;
29026;SDS011;16120;48.608;9.092;2022-10-17T17:54:19;80.93;;;4.90;;
29026;SDS011;16120;48.608;9.092;2022-10-17T17:58:14;82.90;;;4.93;;
29026;SDS011;16120;48.608;9.092;2022-10-17T18:02:11;81.32;;;4.57;;
29026;SDS011;16120;48.608;9.092;2022-10-17T18:06:06;75.90;;;4.73;;
29026;SDS011;16120;48.608;9.092;2022-10-17T18:10:02;79.43;;;4.53;;
29026;SDS011;16120;48.608;9.092;2022-10-17T18:13:58;87.73;;;5.07;;
29026;SDS011;16120;48.608;9.092;2022-10-17T18:17:55;88.03;;;5.20;;
29026;SDS011;16120;48.608;9.092;2022-10-17T18:21:51;82.10;;;4.60;;
29026;SDS011;16120;48.608;9.092;2022-10-17T18:25:51;79.53;;;5.10;;
29026;SDS011;16120;48.608;9.092;2022-10-17T18:29:47;86.57;;;5.30;;
29026;SDS011;16120;48.608;9.092;2022-10-17T18:33:44;80.35;;;4.57;;
29026;SDS011;16120;48.608;9.092;2022-10-17T18:37:39;86.77;;;5.20;;
29026;SDS011;16120;48.608;9.092;2022-10-17T18:41:35;84.33;;;4.50;;
29026;SDS011;16120;48.608;9.092;2022-10-17T18:45:30;87.10;;;5.20;;
29026;SDS011;16120;48.608;9.092;2022-10-17T18:49:28;91.73;;;5.57;;
29026;SDS011;16120;48.608;9.092;2022-10-17T18:53:23;88.20;;;5.13;;
29026;SDS011;16120;48.608;9.092;2022-10-17T18:57:18;79.60;;;5.13;;
29026;SDS011;16120;48.608;9.092;2022-10-17T19:01:14;92.70;;;5.97;;
29026;SDS011;16120;48.608;9.092;2022-10-17T19:05:11;92.90;;;6.10;;
29026;SDS011;16120;48.608;9.092;2022-10-17T19:09:07;80.93;;;5.33;;
29026;SDS011;16120;48.608;9.092;2022-10-17T19:13:03;85.37;;;5.70;;
29026;SDS011;16120;48.608;9.092;2022-10-17T19:16:58;89.70;;;5.77;;
29026;SDS011;16120;48.608;9.092;2022-10-17T19:20:55;77.60;;;5.00;;
29026;SDS011;16120;48.608;9.092;2022-10-17T19:24:54;80.33;;;5.30;;
29026;SDS011;16120;48.608;9.092;2022-10-17T19:28:50;95.20;;;5.80;;
29026;SDS011;16120;48.608;9.092;2022-10-17T19:32:46;85.07;;;5.70;;
29026;SDS011;16120;48.608;9.092;2022-10-17T19:36:43;80.77;;;5.70;;
29026;SDS011;16120;48.608;9.092;2022-10-17T19:40:38;83.43;;;6.00;;
29026;SDS011;16120;48.608;9.092;2022-10-17T19:44:34;88.07;;;6.70;;
29026;SDS011;16120;48.608;9.092;2022-10-17T19:48:30;87.80;;;5.43;;
29026;SDS011;16120;48.608;9.092;2022-10-17T19:52:27;83.77;;;5.40;;
29026;SDS011;16120;48.608;9.092;2022-10-17T19:56:23;79.70;;;6.17;;
29026;SDS011;16120;48.608;9.092;2022-10-17T20:00:18;88.03;;;5.97;;
29026;SDS011;16120;48.608;9.092;2022-10-17T20:04:14;79.37;;;5.60;;
29026;SDS011;16120;48.608;9.092;2022-10-17T20:08:11;85.17;;;5.90;;
29026;SDS011;16120;48.608;9.092;2022-10-17T20:12:06;83.53;;;5.90;;
29026;SDS011;16120;48.608;9.092;2022-10-17T20:16:03;92.30;;;5.70;;
29026;SDS011;16120;48.608;9.092;2022-10-17T20:19:58;90.43;;;6.13;;
29026;SDS011;16120;48.608;9.092;2022-10-17T20:23:55;83.47;;;6.33;;
29026;SDS011;16120;48.608;9.092;2022-10-17T20:27:52;86.57;;;6.23;;
29026;SDS011;16120;48.608;9.092;2022-10-17T20:31:49;88.60;;;5.87;;
29026;SDS011;16120;48.608;9.092;2022-10-17T20:35:44;84.97;;;6.10;;
29026;SDS011;16120;48.608;9.092;2022-10-17T20:39:41;79.47;;;6.17;;
29026;SDS011;16120;48.608;9.092;2022-10-17T20:43:37;89.30;;;6.17;;
29026;SDS011;16120;48.608;9.092;2022-10-17T20:47:32;92.27;;;6.77;;
29026;SDS011;16120;48.608;9.092;2022-10-17T20:51:28;83.77;;;6.20;;
29026;SDS011;16120;48.608;9.092;2022-10-17T20:55:25;85.57;;;6.30;;
29026;SDS011;16120;48.608;9.092;2022-10-17T20:59:20;85.87;;;5.93;;
29026;SDS011;16120;48.608;9.092;2022-10-17T21:03:15;84.60;;;5.77;;
29026;SDS011;16120;48.608;9.092;2022-10-17T21:07:11;87.00;;;6.10;;
29026;SDS011;16120;48.608;9.092;2022-10-17T21:11:09;85.60;;;6.67;;
29026;SDS011;16120;48.608;9.092;2022-10-17T21:15:05;83.40;;;6.60;;
29026;SDS011;16120;48.608;9.092;2022-10-17T21:19:00;80.73;;;5.67;;
29026;SDS011;16120;48.608;9.092;2022-10-17T21:22:56;80.60;;;5.80;;
29026;SDS011;16120;48.608;9.092;2022-10-17T21:26:53;81.73;;;6.40;;
29026;SDS011;16120;48.608;9.092;2022-10-17T21:30:48;90.20;;;6.90;;
29026;SDS011;16120;48.608;9.092;2022-10-17T21:34:44;82.90;;;6.17;;
29026;SDS011;16120;48.608;9.092;2022-10-17T21:38:39;81.13;;;6.10;;
29026;SDS011;16120;48.608;9.092;2022-10-17T21:42:36;81.23;;;5.93;;
29026;SDS011;16120;48.608;9.092;2022-10-17T21:46:32;83.87;;;6.20;;
29026;SDS011;16120;48.608;9.092;2022-10-17T21:50:27;83.37;;;5.43;;
29026;SDS011;16120;48.608;9.092;2022-10-17T21:54:26;89.07;;;5.90;;
29026;SDS011;16120;48.608;9.092;2022-10-17T21:58:23;93.07;;;6.13;;
29026;SDS011;16120;48.608;9.092;2022-10-17T22:02:19;80.13;;;5.40;;
29026;SDS011;16120;48.608;9.092;2022-10-17T22:06:15;94.90;;;6.70;;
29026;SDS011;16120;48.608;9.092;2022-10-17T22:10:11;77.90;;;6.40;;
29026;SDS011;16120;48.608;9.092;2022-10-17T22:14:09;86.77;;;6.50;;
29026;SDS011;16120;48.608;9.092;2022-10-17T22:18:05;88.00;;;6.40;;
29026;SDS011;16120;48.608;9.092;2022-10-17T22:22:01;93.13;;;6.77;;
29026;SDS011;16120;48.608;9.092;2022-10-17T22:25:56;92.83;;;5.60;;
29026;SDS011;16120;48.608;9.092;2022-10-17T22:29:53;81.80;;;6.03;;
29026;SDS011;16120;48.608;9.092;2022-10-17T22:33:49;78.47;;;6.07;;
29026;SDS011;16120;48.608;9.092;2022-10-17T22:37:45;86.60;;;7.00;;
29026;SDS011;16120;48.608;9.092;2022-10-17T22:41:40;82.37;;;6.70;;
29026;SDS011;16120;48.608;9.092;2022-10-17T22:45:37;82.87;;;6.77;;
29026;SDS011;16120;48.608;9.092;2022-10-17T22:49:33;84.43;;;6.60;;
29026;SDS011;16120;48.608;9.092;2022-10-17T22:53:28;86.80;;;7.10;;
29026;SDS011;16120;48.608;9.092;2022-10-17T22:57:26;81.95;;;6.78;;
29026;SDS011;16120;48.608;9.092;2022-10-17T23:01:27;81.47;;;6.03;;
29026;SDS011;16120;48.608;9.092;2022-10-17T23:05:22;84.43;;;6.33;;
29026;SDS011;16120;48.608;9.092;2022-10-17T23:09:22;86.00;;;7.27;;
29026;SDS011;16120;48.608;9.092;2022-10-17T23:13:17;93.80;;;6.77;;
29026;SDS011;16120;48.608;9.092;2022-10-17T23:17:25;85.97;;;6.93;;
29026;SDS011;16120;48.608;9.092;2022-10-17T23:21:23;83.50;;;7.57;;
29026;SDS011;16120;48.608;9.092;2022-10-17T23:25:25;82.83;;;7.00;;
29026;SDS011;16120;48.608;9.092;2022-10-17T23:29:21;82.00;;;6.93;;
29026;SDS011;16120;48.608;9.092;2022-10-17T23:37:54;84.53;;;6.93;;
29026;SDS011;16120;48.608;9.092;2022-10-17T23:41:53;79.00;;;5.73;;